Time;durP1;ratioP1;P1;durP2;ratioP2;P2;SDS_P1;SDS_P2;PMS_P1;PMS_P2;Temp;Humidity;BMP_temperature;BMP_pressure;BME280_temperature;BME280_humidity;BME280_pressure;Samples;Min_cycle;Max_cycle;Signal;HPM_P1;HPM_P2
2022/10/25 00:01:45;;;;;;;23.50;5.55;;;;;;;;;;5028204;28;20088;-74
2022/10/25 00:04:11;;;;;;;19.38;4.88;;;;;;;;;;5030498;28;20049;-74
2022/10/25 00:06:37;;;;;;;13.73;4.20;;;;;;;;;;5028159;28;20049;-74
2022/10/25 00:09:06;;;;;;;20.08;4.90;;;;;;;;;;5031000;28;20927;-74
2022/10/25 00:11:32;;;;;;;17.85;4.97;;;;;;;;;;5028290;28;20045;-74
2022/10/25 00:14:00;;;;;;;19.23;4.32;;;;;;;;;;5032674;28;20052;-74
2022/10/25 00:16:27;;;;;;;18.88;4.53;;;;;;;;;;5021035;28;20405;-74
2022/10/25 00:18:54;;;;;;;23.23;5.10;;;;;;;;;;5032896;28;20045;-74
2022/10/25 00:21:20;;;;;;;23.23;4.22;;;;;;;;;;5031984;28;20049;-74
2022/10/25 00:23:46;;;;;;;19.95;4.72;;;;;;;;;;5022083;28;20045;-74
2022/10/25 00:26:12;;;;;;;19.00;4.05;;;;;;;;;;5027749;28;20099;-74
2022/10/25 00:28:38;;;;;;;17.65;4.32;;;;;;;;;;5033907;28;20045;-74
2022/10/25 00:31:06;;;;;;;18.80;4.65;;;;;;;;;;5026840;28;20049;-74
2022/10/25 00:33:32;;;;;;;18.33;4.78;;;;;;;;;;5032474;28;20049;-74
2022/10/25 00:36:05;;;;;;;13.40;4.60;;;;;;;;;;5023162;28;20057;-73
2022/10/25 00:38:31;;;;;;;19.58;5.15;;;;;;;;;;5022187;28;20045;-74
2022/10/25 00:40:57;;;;;;;15.30;4.95;;;;;;;;;;5030052;28;20530;-74
2022/10/25 00:43:37;;;;;;;17.55;4.97;;;;;;;;;;5030078;28;20045;-74
2022/10/25 00:46:11;;;;;;;21.25;4.78;;;;;;;;;;5012681;28;20107;-74
2022/10/25 00:48:38;;;;;;;18.92;4.90;;;;;;;;;;5030271;28;20432;-74
2022/10/25 00:51:04;;;;;;;15.23;5.05;;;;;;;;;;5029359;28;20046;-74
2022/10/25 00:53:32;;;;;;;18.48;4.90;;;;;;;;;;5028607;28;20428;-74
2022/10/25 00:56:04;;;;;;;18.63;5.28;;;;;;;;;;5028205;28;20053;-74
2022/10/25 00:58:32;;;;;;;16.88;4.97;;;;;;;;;;5032776;28;20084;-74
2022/10/25 01:01:03;;;;;;;13.80;4.75;;;;;;;;;;5027912;28;20057;-74
2022/10/25 01:03:32;;;;;;;12.70;4.90;;;;;;;;;;5030266;28;20556;-74
2022/10/25 01:05:59;;;;;;;20.17;5.75;;;;;;;;;;5029422;28;20135;-74
2022/10/25 01:08:26;;;;;;;17.38;5.80;;;;;;;;;;5026494;28;20411;-74
2022/10/25 01:10:51;;;;;;;14.82;6.10;;;;;;;;;;5031244;28;20041;-74
2022/10/25 01:13:18;;;;;;;18.90;6.07;;;;;;;;;;5026244;28;20041;-74
2022/10/25 01:15:50;;;;;;;18.33;6.18;;;;;;;;;;5026989;28;20048;-74
2022/10/25 01:18:28;;;;;;;17.30;6.33;;;;;;;;;;5029409;28;20450;-74
2022/10/25 01:21:09;;;;;;;13.70;5.40;;;;;;;;;;5031636;28;20046;-74
2022/10/25 01:23:44;;;;;;;17.27;6.28;;;;;;;;;;5023652;28;20049;-74
2022/10/25 01:26:29;;;;;;;18.15;5.78;;;;;;;;;;5024489;28;20041;-74
2022/10/25 01:29:21;;;;;;;15.52;5.60;;;;;;;;;;5030544;28;20108;-74
2022/10/25 01:31:47;;;;;;;20.27;5.82;;;;;;;;;;5023717;28;20072;-74
2022/10/25 01:34:15;;;;;;;22.73;6.18;;;;;;;;;;5029588;28;20037;-74
2022/10/25 01:36:47;;;;;;;20.02;5.65;;;;;;;;;;5026749;28;20048;-74
2022/10/25 01:39:30;;;;;;;18.90;5.55;;;;;;;;;;5025469;28;20041;-74
2022/10/25 01:42:02;;;;;;;21.33;5.13;;;;;;;;;;5028929;28;20053;-74
2022/10/25 01:44:36;;;;;;;22.70;4.85;;;;;;;;;;5030944;28;20404;-73
2022/10/25 01:47:02;;;;;;;;;;;;;;;;;;5022719;28;20049;-74
2022/10/25 01:49:33;;;;;;;17.90;4.68;;;;;;;;;;5027215;28;19932;-74
2022/10/25 01:51:59;;;;;;;20.17;5.00;;;;;;;;;;5028438;28;20069;-74
2022/10/25 01:54:26;;;;;;;15.82;4.68;;;;;;;;;;5029653;28;20050;-74
2022/10/25 01:56:58;;;;;;;15.38;4.70;;;;;;;;;;5023494;28;20045;-73
2022/10/25 01:59:42;;;;;;;19.77;4.60;;;;;;;;;;5013473;28;20109;-74
2022/10/25 02:02:23;;;;;;;19.13;4.93;;;;;;;;;;5025409;28;20047;-74
2022/10/25 02:04:49;;;;;;;19.90;4.80;;;;;;;;;;5026408;28;20053;-74
2022/10/25 02:07:18;;;;;;;20.35;4.57;;;;;;;;;;5026905;28;20050;-74
2022/10/25 02:09:54;;;;;;;19.60;4.43;;;;;;;;;;5024367;28;20041;-73
2022/10/25 02:12:24;;;;;;;17.52;4.68;;;;;;;;;;5027365;28;20038;-74
2022/10/25 02:15:09;;;;;;;17.50;4.50;;;;;;;;;;5024478;28;20052;-74
2022/10/25 02:17:40;;;;;;;15.60;4.80;;;;;;;;;;5029313;28;20077;-73
2022/10/25 02:20:07;;;;;;;18.92;4.72;;;;;;;;;;5030530;28;20079;-74
2022/10/25 02:22:33;;;;;;;19.77;4.15;;;;;;;;;;5022588;28;20037;-73
2022/10/25 02:25:00;;;;;;;22.38;4.75;;;;;;;;;;5024831;28;20037;-73
2022/10/25 02:27:27;;;;;;;23.75;4.50;;;;;;;;;;5021019;28;20046;-74
2022/10/25 02:29:54;;;;;;;20.55;4.63;;;;;;;;;;5023153;28;20096;-74
2022/10/25 02:32:20;;;;;;;19.90;4.32;;;;;;;;;;5024022;28;20047;-73
2022/10/25 02:34:48;;;;;;;20.25;4.80;;;;;;;;;;5019188;28;20037;-74
2022/10/25 02:37:14;;;;;;;20.58;4.45;;;;;;;;;;5017717;28;20046;-73
2022/10/25 02:39:40;;;;;;;20.55;3.97;;;;;;;;;;5023526;28;20055;-74
2022/10/25 02:42:06;;;;;;;17.08;3.65;;;;;;;;;;5025728;28;20049;-73
2022/10/25 02:44:32;;;;;;;18.33;4.10;;;;;;;;;;5016497;28;20064;-73
2022/10/25 02:46:58;;;;;;;13.68;3.20;;;;;;;;;;5026919;28;20037;-74
2022/10/25 02:49:27;;;;;;;14.07;3.90;;;;;;;;;;5025528;28;20060;-74
2022/10/25 02:51:53;;;;;;;12.85;3.75;;;;;;;;;;5029922;28;20397;-74
2022/10/25 02:54:19;;;;;;;12.90;3.72;;;;;;;;;;5027737;28;20049;-74
2022/10/25 02:56:45;;;;;;;14.50;3.63;;;;;;;;;;5023982;28;20045;-74
2022/10/25 02:59:11;;;;;;;15.35;3.55;;;;;;;;;;5027838;28;20053;-73
2022/10/25 03:01:38;;;;;;;8.90;3.15;;;;;;;;;;5027165;28;20374;-73
2022/10/25 03:04:04;;;;;;;12.15;3.30;;;;;;;;;;5028330;28;20041;-74
2022/10/25 03:06:30;;;;;;;14.43;3.83;;;;;;;;;;5029355;28;20049;-74
2022/10/25 03:08:55;;;;;;;15.02;3.67;;;;;;;;;;5025412;28;20615;-74
2022/10/25 03:11:21;;;;;;;12.57;3.40;;;;;;;;;;5026076;28;20051;-74
2022/10/25 03:13:47;;;;;;;14.05;3.60;;;;;;;;;;5028592;28;20401;-73
2022/10/25 03:16:13;;;;;;;14.90;3.78;;;;;;;;;;5021296;28;20057;-73
2022/10/25 03:18:39;;;;;;;12.98;3.90;;;;;;;;;;5029837;28;20042;-74
2022/10/25 03:21:06;;;;;;;17.23;3.70;;;;;;;;;;5027694;28;20424;-74
2022/10/25 03:23:32;;;;;;;14.77;3.33;;;;;;;;;;5015965;28;20037;-74
2022/10/25 03:25:59;;;;;;;11.80;3.83;;;;;;;;;;5023026;28;20070;-74
2022/10/25 03:28:26;;;;;;;19.27;3.60;;;;;;;;;;5027692;28;20041;-73
2022/10/25 03:30:52;;;;;;;16.08;4.32;;;;;;;;;;5013728;28;20041;-74
2022/10/25 03:33:18;;;;;;;14.52;3.60;;;;;;;;;;5020354;28;20504;-73
2022/10/25 03:35:45;;;;;;;13.60;3.67;;;;;;;;;;5027205;28;20037;-74
2022/10/25 03:38:10;;;;;;;14.85;3.25;;;;;;;;;;5021348;28;20047;-74
2022/10/25 03:40:37;;;;;;;16.33;4.65;;;;;;;;;;5027512;28;20116;-73
2022/10/25 03:43:03;;;;;;;17.10;3.75;;;;;;;;;;5027273;28;20146;-74
2022/10/25 03:45:28;;;;;;;14.07;3.97;;;;;;;;;;5020352;28;20506;-74
2022/10/25 03:47:55;;;;;;;14.82;3.35;;;;;;;;;;5025558;28;20042;-74
2022/10/25 03:50:21;;;;;;;14.23;3.95;;;;;;;;;;5028549;28;20124;-74
2022/10/25 03:52:47;;;;;;;19.98;4.03;;;;;;;;;;5029166;28;20041;-73
2022/10/25 03:55:13;;;;;;;10.68;3.17;;;;;;;;;;5020814;28;20045;-74
2022/10/25 03:57:39;;;;;;;14.18;3.63;;;;;;;;;;5026943;28;20432;-74
2022/10/25 04:00:05;;;;;;;9.85;3.22;;;;;;;;;;5028268;28;20057;-74
2022/10/25 04:02:31;;;;;;;13.25;3.60;;;;;;;;;;5026218;28;20045;-73
2022/10/25 04:04:57;;;;;;;13.68;4.13;;;;;;;;;;5029277;28;20119;-74
2022/10/25 04:07:24;;;;;;;14.45;3.80;;;;;;;;;;5024768;28;20088;-74
2022/10/25 04:09:50;;;;;;;14.45;3.78;;;;;;;;;;5024871;28;20104;-73
2022/10/25 04:12:16;;;;;;;15.68;3.97;;;;;;;;;;5030216;28;20049;-73
2022/10/25 04:14:42;;;;;;;12.93;3.58;;;;;;;;;;5024970;28;20045;-73
2022/10/25 04:17:08;;;;;;;13.85;3.90;;;;;;;;;;5017805;28;20456;-73
2022/10/25 04:19:34;;;;;;;16.50;4.20;;;;;;;;;;5032801;28;20037;-74
2022/10/25 04:22:03;;;;;;;13.57;4.63;;;;;;;;;;5025271;28;20084;-74
2022/10/25 04:24:30;;;;;;;12.93;3.60;;;;;;;;;;5024105;28;20052;-74
2022/10/25 04:26:56;;;;;;;14.00;3.75;;;;;;;;;;5026504;28;20037;-74
2022/10/25 04:29:22;;;;;;;18.17;4.40;;;;;;;;;;5032706;28;20038;-74
2022/10/25 04:31:48;;;;;;;15.73;4.15;;;;;;;;;;5029751;28;20037;-74
2022/10/25 04:34:14;;;;;;;13.75;3.50;;;;;;;;;;5029367;28;20076;-74
2022/10/25 04:36:40;;;;;;;12.82;3.90;;;;;;;;;;5031489;28;20041;-74
2022/10/25 04:39:06;;;;;;;11.32;3.75;;;;;;;;;;5028191;28;20046;-74
2022/10/25 04:41:32;;;;;;;15.95;3.88;;;;;;;;;;5031265;28;20088;-73
2022/10/25 04:43:58;;;;;;;9.73;3.40;;;;;;;;;;5030531;28;20448;-74
2022/10/25 04:46:24;;;;;;;15.10;3.70;;;;;;;;;;5030462;28;20500;-73
2022/10/25 04:48:50;;;;;;;13.65;4.00;;;;;;;;;;5029414;28;20103;-73
2022/10/25 04:51:16;;;;;;;9.20;3.25;;;;;;;;;;5029435;28;20073;-74
2022/10/25 04:53:42;;;;;;;11.15;4.03;;;;;;;;;;5026488;28;20076;-73
2022/10/25 04:56:11;;;;;;;12.70;4.10;;;;;;;;;;5016720;28;20041;-73
2022/10/25 04:58:37;;;;;;;13.23;3.97;;;;;;;;;;5028719;28;20042;-74
2022/10/25 05:01:05;;;;;;;15.05;4.05;;;;;;;;;;5025444;28;20060;-74
2022/10/25 05:03:31;;;;;;;14.20;3.85;;;;;;;;;;5029913;28;20555;-74
2022/10/25 05:06:06;;;;;;;13.07;3.75;;;;;;;;;;5015222;28;20741;-73
2022/10/25 05:08:32;;;;;;;10.63;3.53;;;;;;;;;;5026491;28;20049;-74
2022/10/25 05:10:58;;;;;;;14.30;4.32;;;;;;;;;;5030141;28;20461;-73
2022/10/25 05:13:24;;;;;;;16.17;3.85;;;;;;;;;;5024985;28;20056;-74
2022/10/25 05:15:57;;;;;;;11.52;4.53;;;;;;;;;;5025691;28;20072;-73
2022/10/25 05:18:23;;;;;;;11.48;4.10;;;;;;;;;;5026826;28;20404;-74
2022/10/25 05:20:53;;;;;;;13.55;4.43;;;;;;;;;;5026554;28;20503;-74
2022/10/25 05:23:19;;;;;;;11.73;3.80;;;;;;;;;;5024126;28;20041;-74
2022/10/25 05:25:45;;;;;;;9.65;3.90;;;;;;;;;;5020241;28;20049;-74
2022/10/25 05:28:11;;;;;;;13.70;3.90;;;;;;;;;;5024919;28;20049;-74
2022/10/25 05:30:41;;;;;;;14.20;4.10;;;;;;;;;;5025178;28;20072;-74
2022/10/25 05:33:07;;;;;;;11.48;3.80;;;;;;;;;;5018665;28;20099;-73
2022/10/25 05:35:33;;;;;;;14.00;4.53;;;;;;;;;;5029833;28;20132;-74
2022/10/25 05:38:00;;;;;;;15.35;5.18;;;;;;;;;;5024735;28;20061;-74
2022/10/25 05:40:26;;;;;;;13.80;3.80;;;;;;;;;;5024953;28;20494;-73
2022/10/25 05:42:55;;;;;;;16.08;4.35;;;;;;;;;;5030726;28;20393;-74
2022/10/25 05:45:21;;;;;;;11.30;4.30;;;;;;;;;;5026819;28;20501;-74
2022/10/25 05:47:47;;;;;;;9.55;3.70;;;;;;;;;;5029143;28;20132;-74
2022/10/25 05:50:13;;;;;;;14.13;4.20;;;;;;;;;;5025004;28;20239;-74
2022/10/25 05:52:42;;;;;;;9.88;3.97;;;;;;;;;;5030950;28;20473;-74
2022/10/25 05:55:09;;;;;;;14.07;4.80;;;;;;;;;;5028003;28;20049;-74
2022/10/25 05:57:35;;;;;;;12.80;3.88;;;;;;;;;;5019025;28;20389;-74
2022/10/25 06:00:01;;;;;;;12.48;4.38;;;;;;;;;;5023711;28;20062;-74
2022/10/25 06:02:27;;;;;;;17.20;4.80;;;;;;;;;;5026548;28;20116;-74
2022/10/25 06:04:53;;;;;;;16.40;4.57;;;;;;;;;;5024591;28;20198;-74
2022/10/25 06:07:19;;;;;;;12.40;4.05;;;;;;;;;;5029768;28;20029;-74
2022/10/25 06:09:45;;;;;;;16.40;5.32;;;;;;;;;;5028191;28;20079;-74
2022/10/25 06:12:11;;;;;;;17.13;4.43;;;;;;;;;;5026175;28;20386;-74
2022/10/25 06:14:37;;;;;;;13.52;4.30;;;;;;;;;;5026472;28;20548;-74
2022/10/25 06:17:03;;;;;;;16.85;5.28;;;;;;;;;;5021975;28;20049;-74
2022/10/25 06:19:29;;;;;;;14.27;4.35;;;;;;;;;;5018437;28;20044;-74
2022/10/25 06:21:55;;;;;;;16.08;5.03;;;;;;;;;;5024925;28;20045;-74
2022/10/25 06:24:21;;;;;;;17.88;4.82;;;;;;;;;;5019228;28;20037;-74
2022/10/25 06:26:47;;;;;;;15.75;4.97;;;;;;;;;;5019689;28;20061;-74
2022/10/25 06:29:16;;;;;;;21.63;4.72;;;;;;;;;;5010311;28;20128;-74
2022/10/25 06:31:43;;;;;;;13.02;4.60;;;;;;;;;;5026452;28;20133;-74
2022/10/25 06:34:09;;;;;;;14.18;4.30;;;;;;;;;;5030045;28;20349;-74
2022/10/25 06:36:35;;;;;;;13.43;4.15;;;;;;;;;;5028555;28;20055;-74
2022/10/25 06:39:01;;;;;;;13.52;4.40;;;;;;;;;;5026147;28;20041;-74
2022/10/25 06:41:30;;;;;;;14.93;4.50;;;;;;;;;;5024749;28;20076;-74
2022/10/25 06:43:57;;;;;;;14.43;4.85;;;;;;;;;;5026568;28;20042;-74
2022/10/25 06:46:28;;;;;;;17.17;5.03;;;;;;;;;;5028833;28;20061;-74
2022/10/25 06:48:55;;;;;;;18.60;5.30;;;;;;;;;;5022355;28;20053;-74
2022/10/25 06:51:21;;;;;;;16.92;4.80;;;;;;;;;;5025426;28;20113;-74
2022/10/25 06:53:52;;;;;;;12.05;4.63;;;;;;;;;;5026760;28;20132;-74
2022/10/25 06:56:18;;;;;;;18.05;5.47;;;;;;;;;;5028601;28;20041;-74
2022/10/25 06:58:44;;;;;;;18.20;5.47;;;;;;;;;;5022497;28;20038;-74
2022/10/25 07:01:11;;;;;;;14.18;5.15;;;;;;;;;;5012645;28;20561;-75
2022/10/25 07:03:37;;;;;;;17.92;5.70;;;;;;;;;;5025851;28;20053;-74
2022/10/25 07:06:08;;;;;;;19.75;6.68;;;;;;;;;;5026672;28;20057;-74
2022/10/25 07:08:35;;;;;;;16.58;5.50;;;;;;;;;;5031510;28;20045;-73
2022/10/25 07:11:01;;;;;;;17.80;5.85;;;;;;;;;;5020148;28;20084;-74
2022/10/25 07:13:27;;;;;;;20.42;5.30;;;;;;;;;;5011221;28;20408;-74
2022/10/25 07:15:53;;;;;;;14.02;5.05;;;;;;;;;;5017433;28;20053;-74
2022/10/25 07:18:19;;;;;;;20.48;5.57;;;;;;;;;;5018605;28;20037;-74
2022/10/25 07:20:47;;;;;;;15.68;5.40;;;;;;;;;;5019770;28;20446;-74
2022/10/25 07:23:16;;;;;;;16.80;5.55;;;;;;;;;;5025470;28;20034;-74
2022/10/25 07:25:42;;;;;;;14.95;5.05;;;;;;;;;;5019456;28;20056;-74
2022/10/25 07:28:09;;;;;;;16.30;5.45;;;;;;;;;;5019227;28;20389;-74
2022/10/25 07:30:36;;;;;;;15.95;5.63;;;;;;;;;;5022933;28;20049;-75
2022/10/25 07:33:02;;;;;;;12.82;5.25;;;;;;;;;;5029484;28;20113;-75
2022/10/25 07:35:28;;;;;;;13.18;5.32;;;;;;;;;;5019658;28;20053;-74
2022/10/25 07:37:54;;;;;;;15.95;4.93;;;;;;;;;;5020476;28;20447;-74
2022/10/25 07:40:21;;;;;;;16.02;5.20;;;;;;;;;;4999167;28;20052;-74
2022/10/25 07:42:48;;;;;;;17.63;5.95;;;;;;;;;;5013984;28;20037;-74
2022/10/25 07:45:14;;;;;;;17.75;5.40;;;;;;;;;;5015218;28;20081;-74
2022/10/25 07:47:40;;;;;;;17.40;5.70;;;;;;;;;;5020868;28;20093;-75
2022/10/25 07:50:06;;;;;;;15.07;5.28;;;;;;;;;;5022970;28;20453;-74
2022/10/25 07:52:32;;;;;;;13.90;5.22;;;;;;;;;;5029793;28;20037;-74
2022/10/25 07:54:58;;;;;;;19.70;5.65;;;;;;;;;;5025551;28;20237;-74
2022/10/25 07:57:24;;;;;;;15.27;5.88;;;;;;;;;;5029422;28;20048;-74
2022/10/25 07:59:50;;;;;;;16.35;5.22;;;;;;;;;;5022874;28;20494;-74
2022/10/25 08:02:16;;;;;;;16.55;5.30;;;;;;;;;;5020147;28;20057;-74
2022/10/25 08:04:43;;;;;;;18.73;5.40;;;;;;;;;;5015078;28;20081;-74
2022/10/25 08:07:09;;;;;;;15.13;5.20;;;;;;;;;;5022674;28;20125;-74
2022/10/25 08:09:35;;;;;;;13.88;4.50;;;;;;;;;;5022510;28;20091;-75
2022/10/25 08:12:01;;;;;;;13.05;4.60;;;;;;;;;;5022788;28;20046;-74
2022/10/25 08:14:27;;;;;;;14.73;4.47;;;;;;;;;;5021825;28;20378;-74
2022/10/25 08:16:53;;;;;;;13.57;4.25;;;;;;;;;;5019266;28;20088;-74
2022/10/25 08:19:19;;;;;;;14.98;4.50;;;;;;;;;;5020878;28;20045;-74
2022/10/25 08:21:45;;;;;;;11.45;4.32;;;;;;;;;;5021760;28;20104;-74
2022/10/25 08:24:11;;;;;;;12.50;4.13;;;;;;;;;;5022863;28;20064;-74
2022/10/25 08:26:37;;;;;;;13.23;4.10;;;;;;;;;;5018176;28;20056;-75
2022/10/25 08:29:03;;;;;;;12.77;4.40;;;;;;;;;;5022747;28;20192;-75
2022/10/25 08:31:32;;;;;;;12.52;3.65;;;;;;;;;;5021302;28;20041;-74
2022/10/25 08:33:58;;;;;;;12.63;3.90;;;;;;;;;;5018845;28;20382;-75
2022/10/25 08:36:25;;;;;;;15.38;3.65;;;;;;;;;;5019808;28;20049;-75
2022/10/25 08:38:51;;;;;;;13.52;4.10;;;;;;;;;;5016650;28;20401;-74
2022/10/25 08:41:19;;;;;;;9.95;3.72;;;;;;;;;;5014767;28;20033;-75
2022/10/25 08:43:54;;;;;;;15.05;4.28;;;;;;;;;;5015947;28;20038;-74
2022/10/25 08:46:26;;;;;;;13.50;3.72;;;;;;;;;;5021850;28;20135;-75
2022/10/25 08:49:22;;;;;;;8.05;3.55;;;;;;;;;;5020725;28;20110;-75
2022/10/25 08:51:52;;;;;;;12.75;3.63;;;;;;;;;;4982651;28;20058;-74
2022/10/25 08:54:23;;;;;;;10.82;3.60;;;;;;;;;;5021820;28;20103;-75
2022/10/25 08:56:52;;;;;;;11.93;3.63;;;;;;;;;;5019823;28;21641;-74
2022/10/25 08:59:23;;;;;;;12.85;3.33;;;;;;;;;;5019937;28;20385;-74
2022/10/25 09:01:53;;;;;;;12.90;4.28;;;;;;;;;;5018522;28;20057;-74
2022/10/25 09:04:19;;;;;;;14.68;3.60;;;;;;;;;;5019858;28;20401;-75
2022/10/25 09:07:08;;;;;;;11.90;3.30;;;;;;;;;;5021270;28;20052;-74
2022/10/25 09:09:48;;;;;;;11.68;3.70;;;;;;;;;;5018810;28;20041;-74
2022/10/25 09:12:20;;;;;;;11.20;4.20;;;;;;;;;;5022044;28;20120;-74
2022/10/25 09:14:46;;;;;;;14.13;3.40;;;;;;;;;;5029569;28;20080;-74
2022/10/25 09:17:18;;;;;;;15.07;3.45;;;;;;;;;;5019309;28;20485;-75
2022/10/25 09:20:22;;;;;;;8.75;3.20;;;;;;;;;;5031867;28;20033;-74
2022/10/25 09:22:53;;;;;;;19.63;3.92;;;;;;;;;;4997224;28;20042;-74
2022/10/25 09:25:19;;;;;;;10.82;3.67;;;;;;;;;;4975993;28;20046;-74
2022/10/25 09:27:57;;;;;;;14.30;3.13;;;;;;;;;;5005772;28;20421;-75
2022/10/25 09:30:23;;;;;;;13.75;3.17;;;;;;;;;;5030823;28;20084;-74
2022/10/25 09:32:52;;;;;;;12.70;3.40;;;;;;;;;;5028100;28;20056;-75
2022/10/25 09:35:30;;;;;;;11.95;3.10;;;;;;;;;;5018862;28;20050;-75
2022/10/25 09:38:01;;;;;;;10.85;2.97;;;;;;;;;;5041711;28;20075;-75
2022/10/25 09:40:29;;;;;;;18.42;3.20;;;;;;;;;;5027258;28;20203;-75
2022/10/25 09:42:57;;;;;;;14.50;3.03;;;;;;;;;;5033356;28;20453;-74
2022/10/25 09:45:28;;;;;;;12.23;3.10;;;;;;;;;;5025769;28;20041;-74
2022/10/25 09:48:06;;;;;;;13.48;3.30;;;;;;;;;;5026595;28;20056;-74
2022/10/25 09:50:38;;;;;;;12.40;3.10;;;;;;;;;;5027349;28;20042;-75
2022/10/25 09:53:12;;;;;;;10.80;2.72;;;;;;;;;;5026455;28;20037;-74
2022/10/25 09:55:45;;;;;;;13.10;3.33;;;;;;;;;;5032329;28;20041;-75
2022/10/25 09:58:17;;;;;;;11.10;3.25;;;;;;;;;;5030277;28;20748;-74
2022/10/25 10:00:43;;;;;;;15.70;3.17;;;;;;;;;;5023987;28;20057;-74
2022/10/25 10:03:11;;;;;;;10.75;2.67;;;;;;;;;;5030055;28;20061;-74
2022/10/25 10:05:37;;;;;;;13.18;2.83;;;;;;;;;;5030833;28;20041;-74
2022/10/25 10:08:03;;;;;;;11.93;2.70;;;;;;;;;;5026554;28;20102;-74
2022/10/25 10:10:33;;;;;;;12.95;2.90;;;;;;;;;;5019950;28;20050;-74
2022/10/25 10:13:18;;;;;;;9.88;2.50;;;;;;;;;;5020247;28;20201;-75
2022/10/25 10:15:48;;;;;;;10.75;2.60;;;;;;;;;;5028789;28;20477;-75
2022/10/25 10:18:28;;;;;;;12.07;2.60;;;;;;;;;;5028845;28;20049;-75
2022/10/25 10:21:03;;;;;;;11.25;3.00;;;;;;;;;;5027995;28;20045;-74
2022/10/25 10:23:31;;;;;;;10.00;3.10;;;;;;;;;;5026409;28;20184;-73
2022/10/25 10:25:59;;;;;;;10.45;2.58;;;;;;;;;;5025528;28;20075;-72
2022/10/25 10:28:25;;;;;;;11.20;3.45;;;;;;;;;;5025556;28;20041;-72
2022/10/25 10:30:56;;;;;;;10.05;2.53;;;;;;;;;;5021481;28;20542;-75
2022/10/25 10:33:22;;;;;;;11.90;3.10;;;;;;;;;;5011056;28;20054;-73
2022/10/25 10:35:52;;;;;;;11.80;2.95;;;;;;;;;;5028526;28;20136;-73
2022/10/25 10:38:23;;;;;;;8.32;2.63;;;;;;;;;;5020330;28;20049;-72
2022/10/25 10:40:50;;;;;;;10.13;3.38;;;;;;;;;;5016630;28;20484;-73
2022/10/25 10:43:22;;;;;;;10.30;2.90;;;;;;;;;;5025896;28;20382;-72
2022/10/25 10:45:49;;;;;;;12.80;2.90;;;;;;;;;;5026865;28;20037;-73
2022/10/25 10:48:20;;;;;;;13.32;3.05;;;;;;;;;;5014139;28;20394;-73
2022/10/25 10:50:53;;;;;;;11.18;3.10;;;;;;;;;;5018881;28;20052;-73
2022/10/25 10:53:24;;;;;;;10.02;2.78;;;;;;;;;;5029245;28;20124;-72
2022/10/25 10:55:54;;;;;;;13.55;3.20;;;;;;;;;;5026995;28;20063;-73
2022/10/25 10:58:28;;;;;;;11.60;2.90;;;;;;;;;;5026228;28;20041;-74
2022/10/25 11:01:07;;;;;;;12.98;3.00;;;;;;;;;;5021796;28;20111;-72
2022/10/25 11:03:34;;;;;;;11.43;3.00;;;;;;;;;;5031083;28;20045;-73
2022/10/25 11:06:00;;;;;;;12.93;3.20;;;;;;;;;;5021412;28;20046;-74
2022/10/25 11:08:27;;;;;;;10.45;2.72;;;;;;;;;;5023908;28;20049;-72
2022/10/25 11:11:16;;;;;;;10.05;2.58;;;;;;;;;;5012085;28;20045;-73
2022/10/25 11:13:50;;;;;;;12.38;3.03;;;;;;;;;;5018535;28;20045;-74
2022/10/25 11:16:22;;;;;;;9.45;2.63;;;;;;;;;;5029950;28;20045;-72
2022/10/25 11:19:03;;;;;;;8.73;2.88;;;;;;;;;;5029983;28;20505;-72
2022/10/25 11:21:48;;;;;;;9.27;2.80;;;;;;;;;;5025737;28;20136;-73
2022/10/25 11:24:14;;;;;;;10.70;3.03;;;;;;;;;;5015917;28;20129;-73
2022/10/25 11:26:43;;;;;;;14.20;2.90;;;;;;;;;;5021390;28;20126;-73
2022/10/25 11:29:12;;;;;;;9.25;2.35;;;;;;;;;;5025209;28;20397;-73
2022/10/25 11:31:47;;;;;;;9.75;3.03;;;;;;;;;;5022620;28;20045;-74
2022/10/25 11:34:29;;;;;;;12.75;3.00;;;;;;;;;;5029154;28;20516;-74
2022/10/25 11:37:14;;;;;;;10.95;3.10;;;;;;;;;;5022830;28;20050;-73
2022/10/25 11:39:56;;;;;;;8.82;2.65;;;;;;;;;;5023574;28;20139;-73
2022/10/25 11:42:37;;;;;;;9.17;2.60;;;;;;;;;;5023922;28;20037;-73
2022/10/25 11:45:12;;;;;;;10.88;3.65;;;;;;;;;;5025876;28;20136;-73
2022/10/25 11:47:43;;;;;;;13.02;3.20;;;;;;;;;;5025963;28;20045;-73
2022/10/25 11:50:12;;;;;;;8.68;2.65;;;;;;;;;;5025649;28;20033;-74
2022/10/25 11:52:50;;;;;;;7.60;2.55;;;;;;;;;;5037064;28;20076;-73
2022/10/25 11:55:24;;;;;;;10.32;2.83;;;;;;;;;;5019618;28;20134;-73
2022/10/25 11:58:10;;;;;;;12.32;2.72;;;;;;;;;;5017987;28;20134;-73
2022/10/25 12:00:54;;;;;;;11.15;3.03;;;;;;;;;;4996195;28;20057;-74
2022/10/25 12:03:27;;;;;;;9.90;2.80;;;;;;;;;;5023767;28;20053;-74
2022/10/25 12:06:02;;;;;;;6.35;2.33;;;;;;;;;;5021234;28;20483;-73
2022/10/25 12:08:46;;;;;;;9.38;2.50;;;;;;;;;;5021425;28;20045;-75
2022/10/25 12:11:15;;;;;;;10.63;2.70;;;;;;;;;;5024700;28;20127;-75
2022/10/25 12:13:43;;;;;;;9.35;2.70;;;;;;;;;;5023710;28;20196;-75
2022/10/25 12:16:11;;;;;;;13.00;2.50;;;;;;;;;;5023172;28;20374;-74
2022/10/25 12:18:43;;;;;;;8.70;2.53;;;;;;;;;;5023834;28;20049;-75
2022/10/25 12:21:10;;;;;;;11.80;3.15;;;;;;;;;;5020981;28;20073;-75
2022/10/25 12:23:42;;;;;;;10.82;2.78;;;;;;;;;;5026194;28;20040;-75
2022/10/25 12:26:23;;;;;;;10.50;3.08;;;;;;;;;;5025158;28;20052;-75
2022/10/25 12:28:50;;;;;;;10.77;2.72;;;;;;;;;;5023672;28;20050;-75
2022/10/25 12:31:19;;;;;;;8.98;2.33;;;;;;;;;;5022027;28;20049;-75
2022/10/25 12:33:54;;;;;;;10.25;2.67;;;;;;;;;;5023544;28;20063;-75
2022/10/25 12:36:25;;;;;;;9.23;2.40;;;;;;;;;;5025345;28;20499;-76
2022/10/25 12:38:51;;;;;;;10.77;2.90;;;;;;;;;;5024779;28;20042;-75
2022/10/25 12:41:22;;;;;;;9.52;2.70;;;;;;;;;;5022745;28;20042;-75
2022/10/25 12:44:07;;;;;;;8.15;2.75;;;;;;;;;;5025605;28;20045;-75
2022/10/25 12:46:33;;;;;;;10.15;2.70;;;;;;;;;;5025157;28;20041;-75
2022/10/25 12:49:14;;;;;;;9.20;2.88;;;;;;;;;;5023866;28;20055;-75
2022/10/25 12:51:57;;;;;;;8.90;2.60;;;;;;;;;;5023144;28;20045;-75
2022/10/25 12:54:38;;;;;;;12.20;3.10;;;;;;;;;;5024413;28;20041;-75
2022/10/25 12:57:23;;;;;;;8.73;2.67;;;;;;;;;;5028269;28;20049;-75
2022/10/25 12:59:54;;;;;;;9.45;3.00;;;;;;;;;;5013553;28;20058;-75
2022/10/25 13:02:29;;;;;;;9.65;2.65;;;;;;;;;;5014058;28;20046;-75
2022/10/25 13:05:11;;;;;;;8.82;2.80;;;;;;;;;;5014514;28;20053;-75
2022/10/25 13:07:37;;;;;;;9.07;2.40;;;;;;;;;;5011952;28;20045;-75
2022/10/25 13:10:05;;;;;;;7.60;2.40;;;;;;;;;;5016159;28;20081;-75
2022/10/25 13:12:32;;;;;;;10.27;2.78;;;;;;;;;;5013878;28;20074;-75
2022/10/25 13:14:59;;;;;;;8.00;2.30;;;;;;;;;;5031652;28;20053;-75
2022/10/25 13:17:25;;;;;;;9.10;2.38;;;;;;;;;;5031723;28;20046;-75
2022/10/25 13:19:51;;;;;;;7.05;2.53;;;;;;;;;;5025463;28;20045;-76
2022/10/25 13:22:34;;;;;;;6.70;2.30;;;;;;;;;;5025422;28;20060;-75
2022/10/25 13:25:00;;;;;;;8.17;2.90;;;;;;;;;;5022696;28;20529;-78
2022/10/25 13:27:28;;;;;;;8.35;2.58;;;;;;;;;;5027622;28;20037;-77
2022/10/25 13:30:00;;;;;;;8.43;2.47;;;;;;;;;;5028955;28;20160;-77
2022/10/25 13:32:27;;;;;;;7.00;2.50;;;;;;;;;;5030162;28;20106;-77
2022/10/25 13:34:54;;;;;;;6.72;2.38;;;;;;;;;;5013211;28;20324;-76
2022/10/25 13:37:33;;;;;;;5.20;2.10;;;;;;;;;;5012540;28;20037;-79
2022/10/25 13:40:06;;;;;;;7.28;2.25;;;;;;;;;;5016872;28;20088;-78
2022/10/25 13:42:33;;;;;;;9.00;2.30;;;;;;;;;;5019404;28;20038;-79
2022/10/25 13:45:02;;;;;;;7.43;2.20;;;;;;;;;;5021519;28;20054;-78
2022/10/25 13:47:40;;;;;;;5.40;2.20;;;;;;;;;;5030974;28;20038;-78
2022/10/25 13:50:15;;;;;;;7.22;2.55;;;;;;;;;;5013199;28;20046;-79
2022/10/25 13:53:01;;;;;;;5.60;2.30;;;;;;;;;;5020040;28;20038;-79
2022/10/25 13:55:30;;;;;;;5.68;2.53;;;;;;;;;;5016711;28;20045;-79
2022/10/25 13:57:57;;;;;;;7.25;2.20;;;;;;;;;;5024681;28;20085;-79
2022/10/25 14:00:26;;;;;;;7.80;2.50;;;;;;;;;;5011999;28;20382;-78
2022/10/25 14:03:01;;;;;;;7.20;2.45;;;;;;;;;;5026159;28;20050;-79
2022/10/25 14:05:46;;;;;;;4.88;2.25;;;;;;;;;;5022627;28;20059;-75
2022/10/25 14:08:35;;;;;;;9.50;2.47;;;;;;;;;;5030333;28;20049;-76
2022/10/25 14:11:09;;;;;;;5.72;2.20;;;;;;;;;;5014374;28;20053;-76
2022/10/25 14:13:46;;;;;;;6.35;2.65;;;;;;;;;;5016637;28;20421;-76
2022/10/25 14:16:19;;;;;;;8.75;2.20;;;;;;;;;;5012911;28;20056;-76
2022/10/25 14:18:46;;;;;;;6.43;2.10;;;;;;;;;;5012880;28;20042;-77
2022/10/25 14:21:12;;;;;;;6.45;2.55;;;;;;;;;;5012305;28;20139;-76
2022/10/25 14:23:41;;;;;;;5.88;2.60;;;;;;;;;;5031333;28;20073;-78
2022/10/25 14:26:13;;;;;;;8.63;2.83;;;;;;;;;;5030940;28;20056;-76
2022/10/25 14:28:39;;;;;;;8.50;3.00;;;;;;;;;;5024704;28;20054;-76
2022/10/25 14:31:06;;;;;;;6.30;2.70;;;;;;;;;;5018548;28;20367;-75
2022/10/25 14:33:32;;;;;;;6.43;2.60;;;;;;;;;;5011198;28;20046;-76
2022/10/25 14:36:04;;;;;;;6.30;2.45;;;;;;;;;;5010296;28;20085;-75
2022/10/25 14:38:30;;;;;;;10.50;2.90;;;;;;;;;;5029693;28;20089;-76
2022/10/25 14:40:57;;;;;;;10.77;2.78;;;;;;;;;;5029852;28;20095;-76
2022/10/25 14:43:23;;;;;;;8.65;2.70;;;;;;;;;;5030380;28;20446;-76
2022/10/25 14:46:00;;;;;;;8.55;3.20;;;;;;;;;;5030341;28;20374;-77
2022/10/25 14:48:26;;;;;;;8.18;2.75;;;;;;;;;;5015446;28;20105;-76